Maersk Discoverer — 9V8408 — position and weather

sailwx.info

Track history (hours):
 
Tides and Currents Weather Stations Pressure Air Temp Water Temp Dewpoint Dewpoint Depression Visibility Wind Speed Wind Dir Waves Ship Positions

Maersk Discoverer

Last reported at 2014-Aug-30 01:24 UTC. Time now 2014-Sep-03 04:40 UTC.
Position N 36°25' E 013°45'.

Length 110 m; draft 14.8 m.

Type: . MMSI: 565052000.

Date/timePositionNaut miles runAvg speedWind from/ knotsBaromVisibWave heightAir tempDewpointWater temp
2014-Aug-30 01:24N 36°25' E 013°45'21 7.0
2014-Aug-29 22:28N 36°36' E 013°24'7 6.9
2014-Aug-29 21:30N 36°40' E 013°17'6 6.6
2014-Aug-29 20:33N 36°43' E 013°10'6 6.4
2014-Aug-29 19:33N 36°46' E 013°03'20 6.6
2014-Aug-29 16:31N 36°57' E 012°42'7 6.9
2014-Aug-29 15:33N 37°01' E 012°35'10 6.6
2014-Aug-29 14:05N 37°05' E 012°24'77 4.6
2014-Aug-28 21:20N 38°17' E 012°58'6 6.7
2014-Aug-28 20:27N 38°17' E 013°06'6 6.5
2014-Aug-28 19:33N 38°17' E 013°13'7 6.5
2014-Aug-28 18:33N 38°17' E 013°22'7 6.5
2014-Aug-28 17:32N 38°11' E 013°27'3 2.8
2014-Aug-28 16:33N 38°09' E 013°29'0 0.0
2014-Aug-28 15:33N 38°09' E 013°29'0 0.0
2014-Aug-28 14:33N 38°09' E 013°29'0 0.0
2014-Aug-28 13:32N 38°09' E 013°29'0 0.0
2014-Aug-28 12:33N 38°09' E 013°29'0 0.0
2014-Aug-28 11:33N 38°09' E 013°29'0 0.0
2014-Aug-28 10:33N 38°09' E 013°29'0 0.0
2014-Aug-28 09:33N 38°09' E 013°29'0 0.0
2014-Aug-28 08:33N 38°09' E 013°29'0 0.0
2014-Aug-28 07:33N 38°09' E 013°29'0 0.0
2014-Aug-27 19:33N 38°09' E 013°29'0 0.0
2014-Aug-27 18:33N 38°09' E 013°29'0 0.0
2014-Aug-27 17:33N 38°09' E 013°29'0 0.0
2014-Aug-27 16:33N 38°09' E 013°29'0 0.0
2014-Aug-27 15:33N 38°09' E 013°29'0 0.0
2014-Aug-27 14:33N 38°09' E 013°29'0 0.0
2014-Aug-27 13:33N 38°09' E 013°29'0 0.0
2014-Aug-27 12:33N 38°09' E 013°29'0 0.0
2014-Aug-27 11:33N 38°09' E 013°29'0 0.0
2014-Aug-27 10:33N 38°09' E 013°29'0 0.0
2014-Aug-27 09:33N 38°09' E 013°29'0 0.0
2014-Aug-27 08:33N 38°09' E 013°29'0 0.0
2014-Aug-27 07:33N 38°09' E 013°29'0 0.0
2014-Aug-27 06:33N 38°09' E 013°29'0 0.0
2014-Aug-27 05:33N 38°09' E 013°29'0 0.0
2014-Aug-27 04:33N 38°09' E 013°29'0 0.0
2014-Aug-27 03:33N 38°09' E 013°29'0 0.0
2014-Aug-27 02:33N 38°09' E 013°29'0 0.0
2014-Aug-27 01:33N 38°09' E 013°29'0 0.0
2014-Aug-27 00:33N 38°09' E 013°29'0 0.0
2014-Aug-26 23:33N 38°09' E 013°29'0 0.0
2014-Aug-26 22:33N 38°09' E 013°29'0 0.0
2014-Aug-26 21:33N 38°09' E 013°29'0 0.0
2014-Aug-26 20:33N 38°09' E 013°29'0 0.0
2014-Aug-26 19:33N 38°09' E 013°29'0 0.0
2014-Aug-26 18:33N 38°09' E 013°29'0 0.0
2014-Aug-26 17:33N 38°09' E 013°29'0 0.0
2014-Aug-26 16:33N 38°09' E 013°29'0 0.0
2014-Aug-26 15:33N 38°09' E 013°29'0 0.0
2014-Aug-26 11:07N 38°09' E 013°29'0 0.0
2014-Aug-26 08:06N 38°09' E 013°29'0 0.0
2014-Aug-26 07:33N 38°09' E 013°29'0 0.0
2014-Aug-26 06:33N 38°09' E 013°29'0 0.0
2014-Aug-26 05:33N 38°09' E 013°29'0 0.0
2014-Aug-26 04:33N 38°09' E 013°29'0 0.0
2014-Aug-26 03:33N 38°09' E 013°29'0 0.0
2014-Aug-26 02:33N 38°09' E 013°29'0 0.0
2014-Aug-26 01:33N 38°09' E 013°29'0 0.0
2014-Aug-26 00:33N 38°09' E 013°29'0 0.0
2014-Aug-25 23:33N 38°09' E 013°29'0 0.0
2014-Aug-25 22:33N 38°09' E 013°29'0 0.0
2014-Aug-25 21:33N 38°09' E 013°29'0 0.0
2014-Aug-25 20:33N 38°09' E 013°29'0 0.0
2014-Aug-25 19:33N 38°09' E 013°29'0 0.0
2014-Aug-25 18:33N 38°09' E 013°29'0 0.0
2014-Aug-25 17:33N 38°09' E 013°29'0 0.0
2014-Aug-25 16:33N 38°09' E 013°29'0 0.0
2014-Aug-25 15:33N 38°09' E 013°29'0 0.0
2014-Aug-25 14:33N 38°09' E 013°29'0 0.0
2014-Aug-25 13:33N 38°09' E 013°29'0 0.0
2014-Aug-25 12:33N 38°09' E 013°29'0 0.0
2014-Aug-25 11:33N 38°09' E 013°29'0 0.0
2014-Aug-25 10:33N 38°09' E 013°29'0 0.0
2014-Aug-25 09:33N 38°09' E 013°29'0 0.0
2014-Aug-25 08:33N 38°09' E 013°29'0 0.0
2014-Aug-25 07:33N 38°09' E 013°29'0 0.0
2014-Aug-25 06:33N 38°09' E 013°29'0 0.0
2014-Aug-25 05:33N 38°09' E 013°29'0 0.0
2014-Aug-25 04:33N 38°09' E 013°29'0 0.0
2014-Aug-25 03:33N 38°09' E 013°29'0 0.0
2014-Aug-25 02:33N 38°09' E 013°29'0 0.0
2014-Aug-25 01:33N 38°09' E 013°29'0 0.0
2014-Aug-25 00:33N 38°09' E 013°29'0 0.0
2014-Aug-24 23:34N 38°09' E 013°29'0 0.0
2014-Aug-24 22:33N 38°09' E 013°29'0 0.0
2014-Aug-24 21:33N 38°09' E 013°29'0 0.0
2014-Aug-24 20:33N 38°09' E 013°29'0 0.0
2014-Aug-24 19:33N 38°09' E 013°29'0 0.0
2014-Aug-24 18:33N 38°09' E 013°29'0 0.0
2014-Aug-24 17:33N 38°09' E 013°29'0 0.0
2014-Aug-24 16:33N 38°09' E 013°29'0 0.0
2014-Aug-24 15:33N 38°09' E 013°29'0 0.0
2014-Aug-24 14:33N 38°09' E 013°29'0 0.0
2014-Aug-24 13:33N 38°09' E 013°29'0 0.0
2014-Aug-24 12:33N 38°09' E 013°29'0 0.0
2014-Aug-24 11:33N 38°09' E 013°29'0 0.0
2014-Aug-24 10:32N 38°09' E 013°29'0 0.0
2014-Aug-24 09:33N 38°09' E 013°29'0 0.0
2014-Aug-24 08:33N 38°09' E 013°29'0 0.0
2014-Aug-24 07:33N 38°09' E 013°29'0 0.0
2014-Aug-24 06:34N 38°09' E 013°29'0 0.0
2014-Aug-24 05:33N 38°09' E 013°29'0 0.0
2014-Aug-24 04:33N 38°09' E 013°29'0 0.0
2014-Aug-24 03:34N 38°09' E 013°29'0 0.0
2014-Aug-24 02:34N 38°09' E 013°29'0 0.0
2014-Aug-24 01:34N 38°09' E 013°29'0 0.0
2014-Aug-24 00:34N 38°09' E 013°29'0 0.0
2014-Aug-23 23:34N 38°09' E 013°29'0 0.0
2014-Aug-23 22:34N 38°09' E 013°29'0 0.0
2014-Aug-23 21:33N 38°09' E 013°29'0 0.0
2014-Aug-23 20:34N 38°09' E 013°29'0 0.0
2014-Aug-23 19:33N 38°09' E 013°29'0 0.0
2014-Aug-23 03:33N 38°09' E 013°29'0 0.0
2014-Aug-23 02:34N 38°09' E 013°29'0 0.0
2014-Aug-23 01:33N 38°09' E 013°29'0 0.0
2014-Aug-23 00:33N 38°09' E 013°29'0 0.0
2014-Aug-22 23:33N 38°09' E 013°29'0 0.0
2014-Aug-22 22:33N 38°09' E 013°29'0 0.0
2014-Aug-22 21:34N 38°09' E 013°29'0 0.0
2014-Aug-22 20:34N 38°09' E 013°29'0 0.0
2014-Aug-22 19:34N 38°09' E 013°29'0 0.0
2014-Aug-22 18:34N 38°09' E 013°29'0 0.0
2014-Aug-22 17:33N 38°09' E 013°29'0 0.0
2014-Aug-22 16:34N 38°09' E 013°29'0 0.0
2014-Aug-22 15:33N 38°09' E 013°29'0 0.0
2014-Aug-22 14:33N 38°09' E 013°29'0 0.0
2014-Aug-22 13:33N 38°09' E 013°29'0 0.0
2014-Aug-22 12:33N 38°09' E 013°29'0 0.0
2014-Aug-22 11:34N 38°09' E 013°29'0 0.0
2014-Aug-22 10:34N 38°09' E 013°29'0 0.0
2014-Aug-22 09:34N 38°09' E 013°29'0 0.0
2014-Aug-22 08:34N 38°09' E 013°29'0 0.0
2014-Aug-22 07:34N 38°09' E 013°29'0 0.0
2014-Aug-22 06:34N 38°09' E 013°29'0 0.0
2014-Aug-22 05:33N 38°09' E 013°29'0 0.0
2014-Aug-22 04:33N 38°09' E 013°29'0 0.0
2014-Aug-22 03:34N 38°09' E 013°29'0 0.0
2014-Aug-22 02:33N 38°09' E 013°29'0 0.0
2014-Aug-22 01:34N 38°09' E 013°29'0 0.0
2014-Aug-22 00:34N 38°09' E 013°29'0 0.0
2014-Aug-21 23:33N 38°09' E 013°29'0 0.0
2014-Aug-21 22:33N 38°09' E 013°29'0 0.0
2014-Aug-21 21:33N 38°09' E 013°29'0 0.0
2014-Aug-21 20:34N 38°09' E 013°29'0 0.0
2014-Aug-21 19:34N 38°09' E 013°29'0 0.0
2014-Aug-21 18:33N 38°09' E 013°29'0 0.0
2014-Aug-21 17:34N 38°09' E 013°29'0 0.0
2014-Aug-21 16:34N 38°09' E 013°29'0 0.0
2014-Aug-21 15:34N 38°09' E 013°29'0 0.0
2014-Aug-21 14:33N 38°09' E 013°29'0 0.0
2014-Aug-21 13:33N 38°09' E 013°29'0 0.0
2014-Aug-21 12:33N 38°09' E 013°29'0 0.0
2014-Aug-21 11:34N 38°09' E 013°29'0 0.0
2014-Aug-21 10:33N 38°09' E 013°29'0 0.0
2014-Aug-21 09:33N 38°09' E 013°29'0 0.0
2014-Aug-21 08:33N 38°09' E 013°29'0 0.0
2014-Aug-21 07:34N 38°09' E 013°29'0 0.0
2014-Aug-21 06:33N 38°09' E 013°29'0 0.0
2014-Aug-21 05:34N 38°09' E 013°29'0 0.0
2014-Aug-21 04:34N 38°09' E 013°29'0 0.0
2014-Aug-21 03:34N 38°09' E 013°29'0 0.0
2014-Aug-21 02:33N 38°09' E 013°29'0 0.0
2014-Aug-21 01:34N 38°09' E 013°29'0 0.0
2014-Aug-21 00:33N 38°09' E 013°29'0 0.0
2014-Aug-20 23:34N 38°09' E 013°29'0 0.0
2014-Aug-20 22:34N 38°09' E 013°29'0 0.0
2014-Aug-20 21:33N 38°09' E 013°29'0 0.0
2014-Aug-20 20:33N 38°09' E 013°29'0 0.0
2014-Aug-20 19:33N 38°09' E 013°29'0 0.0
2014-Aug-20 18:33N 38°09' E 013°29'0 0.0
2014-Aug-20 17:33N 38°09' E 013°29'0 0.0
2014-Aug-20 16:34N 38°09' E 013°29'0 0.0
2014-Aug-20 15:33N 38°09' E 013°29'0 0.0
2014-Aug-20 14:33N 38°09' E 013°29'0 0.0
2014-Aug-20 13:33N 38°09' E 013°29'0 0.0
2014-Aug-20 12:34N 38°09' E 013°29'0 0.0
2014-Aug-20 11:33N 38°09' E 013°29'0 0.0
2014-Aug-20 10:34N 38°09' E 013°29'0 0.0
2014-Aug-20 09:33N 38°09' E 013°29'0 0.0
2014-Aug-20 08:33N 38°09' E 013°29'0 0.0
2014-Aug-20 07:33N 38°09' E 013°29'0 0.0
2014-Aug-20 06:33N 38°09' E 013°29'0 0.0
2014-Aug-20 05:33N 38°09' E 013°29'0 0.0
2014-Aug-20 04:33N 38°09' E 013°29'0 0.0
2014-Aug-20 03:26N 38°09' E 013°29'0 0.0
2014-Aug-20 02:34N 38°09' E 013°29'0 0.0
2014-Aug-20 01:34N 38°09' E 013°29'  
Track history (hours):
 
Tides and Currents Weather Stations Pressure Air Temp Water Temp Dewpoint Dewpoint Depression Visibility Wind Speed Wind Dir Waves Ship Positions

Maersk Discoverer

Last reported at 2014-Aug-30 01:24 UTC. Time now 2014-Sep-03 04:40 UTC.
Position N 36°25' E 013°45'.

Length 110 m; draft 14.8 m.

Type: . MMSI: 565052000.

Date/timePositionNaut miles runAvg speedWind from/ knotsBaromVisibWave heightAir tempDewpointWater temp
2014-Aug-30 01:24N 36°25' E 013°45'21 7.0
2014-Aug-29 22:28N 36°36' E 013°24'7 6.9
2014-Aug-29 21:30N 36°40' E 013°17'6 6.6
2014-Aug-29 20:33N 36°43' E 013°10'6 6.4
2014-Aug-29 19:33N 36°46' E 013°03'20 6.6
2014-Aug-29 16:31N 36°57' E 012°42'7 6.9
2014-Aug-29 15:33N 37°01' E 012°35'10 6.6
2014-Aug-29 14:05N 37°05' E 012°24'77 4.6
2014-Aug-28 21:20N 38°17' E 012°58'6 6.7
2014-Aug-28 20:27N 38°17' E 013°06'6 6.5
2014-Aug-28 19:33N 38°17' E 013°13'7 6.5
2014-Aug-28 18:33N 38°17' E 013°22'7 6.5
2014-Aug-28 17:32N 38°11' E 013°27'3 2.8
2014-Aug-28 16:33N 38°09' E 013°29'0 0.0
2014-Aug-28 15:33N 38°09' E 013°29'0 0.0
2014-Aug-28 14:33N 38°09' E 013°29'0 0.0
2014-Aug-28 13:32N 38°09' E 013°29'0 0.0
2014-Aug-28 12:33N 38°09' E 013°29'0 0.0
2014-Aug-28 11:33N 38°09' E 013°29'0 0.0
2014-Aug-28 10:33N 38°09' E 013°29'0 0.0
2014-Aug-28 09:33N 38°09' E 013°29'0 0.0
2014-Aug-28 08:33N 38°09' E 013°29'0 0.0
2014-Aug-28 07:33N 38°09' E 013°29'0 0.0
2014-Aug-27 19:33N 38°09' E 013°29'0 0.0
2014-Aug-27 18:33N 38°09' E 013°29'0 0.0
2014-Aug-27 17:33N 38°09' E 013°29'0 0.0
2014-Aug-27 16:33N 38°09' E 013°29'0 0.0
2014-Aug-27 15:33N 38°09' E 013°29'0 0.0
2014-Aug-27 14:33N 38°09' E 013°29'0 0.0
2014-Aug-27 13:33N 38°09' E 013°29'0 0.0
2014-Aug-27 12:33N 38°09' E 013°29'0 0.0
2014-Aug-27 11:33N 38°09' E 013°29'0 0.0
2014-Aug-27 10:33N 38°09' E 013°29'0 0.0
2014-Aug-27 09:33N 38°09' E 013°29'0 0.0
2014-Aug-27 08:33N 38°09' E 013°29'0 0.0
2014-Aug-27 07:33N 38°09' E 013°29'0 0.0
2014-Aug-27 06:33N 38°09' E 013°29'0 0.0
2014-Aug-27 05:33N 38°09' E 013°29'0 0.0
2014-Aug-27 04:33N 38°09' E 013°29'0 0.0
2014-Aug-27 03:33N 38°09' E 013°29'0 0.0
2014-Aug-27 02:33N 38°09' E 013°29'0 0.0
2014-Aug-27 01:33N 38°09' E 013°29'0 0.0
2014-Aug-27 00:33N 38°09' E 013°29'0 0.0
2014-Aug-26 23:33N 38°09' E 013°29'0 0.0
2014-Aug-26 22:33N 38°09' E 013°29'0 0.0
2014-Aug-26 21:33N 38°09' E 013°29'0 0.0
2014-Aug-26 20:33N 38°09' E 013°29'0 0.0
2014-Aug-26 19:33N 38°09' E 013°29'0 0.0
2014-Aug-26 18:33N 38°09' E 013°29'0 0.0
2014-Aug-26 17:33N 38°09' E 013°29'0 0.0
2014-Aug-26 16:33N 38°09' E 013°29'0 0.0
2014-Aug-26 15:33N 38°09' E 013°29'0 0.0
2014-Aug-26 11:07N 38°09' E 013°29'0 0.0
2014-Aug-26 08:06N 38°09' E 013°29'0 0.0
2014-Aug-26 07:33N 38°09' E 013°29'0 0.0
2014-Aug-26 06:33N 38°09' E 013°29'0 0.0
2014-Aug-26 05:33N 38°09' E 013°29'0 0.0
2014-Aug-26 04:33N 38°09' E 013°29'0 0.0
2014-Aug-26 03:33N 38°09' E 013°29'0 0.0
2014-Aug-26 02:33N 38°09' E 013°29'0 0.0
2014-Aug-26 01:33N 38°09' E 013°29'0 0.0
2014-Aug-26 00:33N 38°09' E 013°29'0 0.0
2014-Aug-25 23:33N 38°09' E 013°29'0 0.0
2014-Aug-25 22:33N 38°09' E 013°29'0 0.0
2014-Aug-25 21:33N 38°09' E 013°29'0 0.0
2014-Aug-25 20:33N 38°09' E 013°29'0 0.0
2014-Aug-25 19:33N 38°09' E 013°29'0 0.0
2014-Aug-25 18:33N 38°09' E 013°29'0 0.0
2014-Aug-25 17:33N 38°09' E 013°29'0 0.0
2014-Aug-25 16:33N 38°09' E 013°29'0 0.0
2014-Aug-25 15:33N 38°09' E 013°29'0 0.0
2014-Aug-25 14:33N 38°09' E 013°29'0 0.0
2014-Aug-25 13:33N 38°09' E 013°29'0 0.0
2014-Aug-25 12:33N 38°09' E 013°29'0 0.0
2014-Aug-25 11:33N 38°09' E 013°29'0 0.0
2014-Aug-25 10:33N 38°09' E 013°29'0 0.0
2014-Aug-25 09:33N 38°09' E 013°29'0 0.0
2014-Aug-25 08:33N 38°09' E 013°29'0 0.0
2014-Aug-25 07:33N 38°09' E 013°29'0 0.0
2014-Aug-25 06:33N 38°09' E 013°29'0 0.0
2014-Aug-25 05:33N 38°09' E 013°29'0 0.0
2014-Aug-25 04:33N 38°09' E 013°29'0 0.0
2014-Aug-25 03:33N 38°09' E 013°29'0 0.0
2014-Aug-25 02:33N 38°09' E 013°29'0 0.0
2014-Aug-25 01:33N 38°09' E 013°29'0 0.0
2014-Aug-25 00:33N 38°09' E 013°29'0 0.0
2014-Aug-24 23:34N 38°09' E 013°29'0 0.0
2014-Aug-24 22:33N 38°09' E 013°29'0 0.0
2014-Aug-24 21:33N 38°09' E 013°29'0 0.0
2014-Aug-24 20:33N 38°09' E 013°29'0 0.0
2014-Aug-24 19:33N 38°09' E 013°29'0 0.0
2014-Aug-24 18:33N 38°09' E 013°29'0 0.0
2014-Aug-24 17:33N 38°09' E 013°29'0 0.0
2014-Aug-24 16:33N 38°09' E 013°29'0 0.0
2014-Aug-24 15:33N 38°09' E 013°29'0 0.0
2014-Aug-24 14:33N 38°09' E 013°29'0 0.0
2014-Aug-24 13:33N 38°09' E 013°29'0 0.0
2014-Aug-24 12:33N 38°09' E 013°29'0 0.0
2014-Aug-24 11:33N 38°09' E 013°29'0 0.0
2014-Aug-24 10:32N 38°09' E 013°29'0 0.0
2014-Aug-24 09:33N 38°09' E 013°29'0 0.0
2014-Aug-24 08:33N 38°09' E 013°29'0 0.0
2014-Aug-24 07:33N 38°09' E 013°29'0 0.0
2014-Aug-24 06:34N 38°09' E 013°29'0 0.0
2014-Aug-24 05:33N 38°09' E 013°29'0 0.0
2014-Aug-24 04:33N 38°09' E 013°29'0 0.0
2014-Aug-24 03:34N 38°09' E 013°29'0 0.0
2014-Aug-24 02:34N 38°09' E 013°29'0 0.0
2014-Aug-24 01:34N 38°09' E 013°29'0 0.0
2014-Aug-24 00:34N 38°09' E 013°29'0 0.0
2014-Aug-23 23:34N 38°09' E 013°29'0 0.0
2014-Aug-23 22:34N 38°09' E 013°29'0 0.0
2014-Aug-23 21:33N 38°09' E 013°29'0 0.0
2014-Aug-23 20:34N 38°09' E 013°29'0 0.0
2014-Aug-23 19:33N 38°09' E 013°29'0 0.0
2014-Aug-23 03:33N 38°09' E 013°29'0 0.0
2014-Aug-23 02:34N 38°09' E 013°29'0 0.0
2014-Aug-23 01:33N 38°09' E 013°29'0 0.0
2014-Aug-23 00:33N 38°09' E 013°29'0 0.0
2014-Aug-22 23:33N 38°09' E 013°29'0 0.0
2014-Aug-22 22:33N 38°09' E 013°29'0 0.0
2014-Aug-22 21:34N 38°09' E 013°29'0 0.0
2014-Aug-22 20:34N 38°09' E 013°29'0 0.0
2014-Aug-22 19:34N 38°09' E 013°29'0 0.0
2014-Aug-22 18:34N 38°09' E 013°29'0 0.0
2014-Aug-22 17:33N 38°09' E 013°29'0 0.0
2014-Aug-22 16:34N 38°09' E 013°29'0 0.0
2014-Aug-22 15:33N 38°09' E 013°29'0 0.0
2014-Aug-22 14:33N 38°09' E 013°29'0 0.0
2014-Aug-22 13:33N 38°09' E 013°29'0 0.0
2014-Aug-22 12:33N 38°09' E 013°29'0 0.0
2014-Aug-22 11:34N 38°09' E 013°29'0 0.0
2014-Aug-22 10:34N 38°09' E 013°29'0 0.0
2014-Aug-22 09:34N 38°09' E 013°29'0 0.0
2014-Aug-22 08:34N 38°09' E 013°29'0 0.0
2014-Aug-22 07:34N 38°09' E 013°29'0 0.0
2014-Aug-22 06:34N 38°09' E 013°29'0 0.0
2014-Aug-22 05:33N 38°09' E 013°29'0 0.0
2014-Aug-22 04:33N 38°09' E 013°29'0 0.0
2014-Aug-22 03:34N 38°09' E 013°29'0 0.0
2014-Aug-22 02:33N 38°09' E 013°29'0 0.0
2014-Aug-22 01:34N 38°09' E 013°29'0 0.0
2014-Aug-22 00:34N 38°09' E 013°29'0 0.0
2014-Aug-21 23:33N 38°09' E 013°29'0 0.0
2014-Aug-21 22:33N 38°09' E 013°29'0 0.0
2014-Aug-21 21:33N 38°09' E 013°29'0 0.0
2014-Aug-21 20:34N 38°09' E 013°29'0 0.0
2014-Aug-21 19:34N 38°09' E 013°29'0 0.0
2014-Aug-21 18:33N 38°09' E 013°29'0 0.0
2014-Aug-21 17:34N 38°09' E 013°29'0 0.0
2014-Aug-21 16:34N 38°09' E 013°29'0 0.0
2014-Aug-21 15:34N 38°09' E 013°29'0 0.0
2014-Aug-21 14:33N 38°09' E 013°29'0 0.0
2014-Aug-21 13:33N 38°09' E 013°29'0 0.0
2014-Aug-21 12:33N 38°09' E 013°29'0 0.0
2014-Aug-21 11:34N 38°09' E 013°29'0 0.0
2014-Aug-21 10:33N 38°09' E 013°29'0 0.0
2014-Aug-21 09:33N 38°09' E 013°29'0 0.0
2014-Aug-21 08:33N 38°09' E 013°29'0 0.0
2014-Aug-21 07:34N 38°09' E 013°29'0 0.0
2014-Aug-21 06:33N 38°09' E 013°29'0 0.0
2014-Aug-21 05:34N 38°09' E 013°29'0 0.0
2014-Aug-21 04:34N 38°09' E 013°29'0 0.0
2014-Aug-21 03:34N 38°09' E 013°29'0 0.0
2014-Aug-21 02:33N 38°09' E 013°29'0 0.0
2014-Aug-21 01:34N 38°09' E 013°29'0 0.0
2014-Aug-21 00:33N 38°09' E 013°29'0 0.0
2014-Aug-20 23:34N 38°09' E 013°29'0 0.0
2014-Aug-20 22:34N 38°09' E 013°29'0 0.0
2014-Aug-20 21:33N 38°09' E 013°29'0 0.0
2014-Aug-20 20:33N 38°09' E 013°29'0 0.0
2014-Aug-20 19:33N 38°09' E 013°29'0 0.0
2014-Aug-20 18:33N 38°09' E 013°29'0 0.0
2014-Aug-20 17:33N 38°09' E 013°29'0 0.0
2014-Aug-20 16:34N 38°09' E 013°29'0 0.0
2014-Aug-20 15:33N 38°09' E 013°29'0 0.0
2014-Aug-20 14:33N 38°09' E 013°29'0 0.0
2014-Aug-20 13:33N 38°09' E 013°29'0 0.0
2014-Aug-20 12:34N 38°09' E 013°29'0 0.0
2014-Aug-20 11:33N 38°09' E 013°29'0 0.0
2014-Aug-20 10:34N 38°09' E 013°29'0 0.0
2014-Aug-20 09:33N 38°09' E 013°29'0 0.0
2014-Aug-20 08:33N 38°09' E 013°29'0 0.0
2014-Aug-20 07:33N 38°09' E 013°29'0 0.0
2014-Aug-20 06:33N 38°09' E 013°29'0 0.0
2014-Aug-20 05:33N 38°09' E 013°29'0 0.0
2014-Aug-20 04:33N 38°09' E 013°29'0 0.0
2014-Aug-20 03:26N 38°09' E 013°29'0 0.0
2014-Aug-20 02:34N 38°09' E 013°29'0 0.0
2014-Aug-20 01:34N 38°09' E 013°29'  

Dump ship's entire track history